Flight Track Log - Related Links

Times and Time Zones

All times are in EDT time to prevent confusion due to time zone crossing. See the JZA8245 flight status page for this flight to view local times or setup timezone preferences in your user account.

Time Position Orientation Groundspeed Altitude Reporting Facility
EDT Latitude Longitude Course Direction KTS MPH feet Rate Location/Type
Thu 10:56:00 PM 53.3390 -127.7085 138° Southeast  Level FlightAware Approximate
Thu 10:57:00 PM 53.2771 -127.6282 143° Southeast  Level FlightAware Approximate
Thu 10:58:00 PM 53.2146 -127.5489 143° Southeast  Level FlightAware Approximate
Thu 10:59:00 PM 53.1522 -127.4698 143° Southeast  Level FlightAware Approximate
Thu 11:00:00 PM 53.0896 -127.3909 143° Southeast  Level FlightAware Approximate
Thu 11:01:00 PM 53.0271 -127.3123 143° Southeast  Level FlightAware Approximate
Thu 11:02:00 PM 52.9645 -127.2339 143° Southeast  Level FlightAware Approximate
Thu 11:03:00 PM 52.9018 -127.1557 143° Southeast  Level FlightAware Approximate
Thu 11:04:00 PM 52.8391 -127.0778 143° Southeast  Level FlightAware Approximate
Thu 11:05:00 PM 52.7765 -126.9997 143° Southeast  Level FlightAware Approximate
Thu 11:06:00 PM 52.7140 -126.9213 143° Southeast  Level FlightAware Approximate
Thu 11:07:00 PM 52.6516 -126.8430 143° Southeast  Level FlightAware Approximate
Thu 11:08:00 PM 52.5891 -126.7649 143° Southeast  Level FlightAware Approximate
Thu 11:09:00 PM 52.5266 -126.6870 143° Southeast  Level FlightAware Approximate
Thu 11:10:00 PM 52.4641 -126.6094 143° Southeast  Level FlightAware Approximate
Thu 11:11:00 PM 52.4015 -126.5319 143° Southeast  Level FlightAware Approximate
Thu 11:12:00 PM 52.3388 -126.4547 143° Southeast  Level FlightAware Approximate
Thu 11:13:00 PM 52.2761 -126.3777 143° Southeast  Level FlightAware Approximate
Thu 11:14:00 PM 52.2134 -126.3009 143° Southeast  Level FlightAware Approximate
Thu 11:15:00 PM 52.1506 -126.2244 143° Southeast  Level FlightAware Approximate
Thu 11:16:00 PM 52.0877 -126.1480 143° Southeast  Level FlightAware Approximate
Thu 11:17:00 PM 52.0248 -126.0719 143° Southeast  Level FlightAware Approximate
Thu 11:18:00 PM 51.9619 -125.9960 143° Southeast  Level FlightAware Approximate
Thu 11:19:00 PM 51.8989 -125.9203 143° Southeast  Level FlightAware Approximate
Thu 11:20:00 PM 51.8358 -125.8448 143° Southeast  Level FlightAware Approximate
Thu 11:21:00 PM 51.7728 -125.7695 144° Southeast  Level FlightAware Approximate
Thu 11:22:00 PM 51.7096 -125.6944 144° Southeast  Level FlightAware Approximate
Thu 11:23:00 PM 51.6464 -125.6196 144° Southeast  Level FlightAware Approximate
Thu 11:24:00 PM 51.5832 -125.5449 144° Southeast  Level FlightAware Approximate
Thu 11:25:00 PM 51.5199 -125.4704 144° Southeast  Level FlightAware Approximate
Thu 11:26:00 PM 51.4564 -125.3965 144° Southeast  Level FlightAware Approximate
Thu 11:27:00 PM 51.3929 -125.3227 144° Southeast  Level FlightAware Approximate
Thu 11:28:00 PM 51.3293 -125.2492 144° Southeast  Level FlightAware Approximate
Thu 11:29:00 PM 51.2657 -125.1759 144° Southeast  Level FlightAware Approximate
Thu 11:30:00 PM 51.2020 -125.1028 144° Southeast  Level FlightAware Approximate
Thu 11:31:00 PM 51.1383 -125.0299 144° Southeast  Level FlightAware Approximate
Thu 11:32:00 PM 51.0746 -124.9572 144° Southeast  Level FlightAware Approximate
Thu 11:33:00 PM 51.0107 -124.8847 144° Southeast  Level FlightAware Approximate
Thu 11:34:00 PM 50.9469 -124.8124 144° Southeast  Level FlightAware Approximate
Thu 11:35:00 PM 50.8830 -124.7403 145° Southeast  Level FlightAware Approximate
Thu 11:36:00 PM 50.8191 -124.6684 145° Southeast  Level FlightAware Approximate
Thu 11:37:00 PM 50.7551 -124.5967 145° Southeast  Level FlightAware Approximate
Thu 11:38:00 PM 50.6911 -124.5252 145° Southeast  Level FlightAware Approximate
Thu 11:39:00 PM 50.6270 -124.4539 145° Southeast  Level FlightAware Approximate
Thu 11:40:00 PM 50.5629 -124.3828 145° Southeast  Level FlightAware Approximate
Thu 11:41:00 PM 50.4977 -124.3143 148° Southeast  Level FlightAware Approximate
Thu 11:42:00 PM 50.4365 -124.2381 136° Southeast  Level FlightAware Approximate
Thu 11:43:00 PM 50.3672 -124.1812 153° Southeast  Level FlightAware Approximate
Thu 11:44:00 PM 50.2972 -124.1261 153° Southeast  Level FlightAware Approximate
Thu 11:45:00 PM 50.2271 -124.0712 153° Southeast  Level FlightAware Approximate
Thu 11:46:00 PM 50.1558 -124.0101 150° Southeast  Level FlightAware Approximate
Thu 11:47:00 PM 50.0854 -123.9467 150° Southeast  Level FlightAware Approximate
Thu 11:48:00 PM 50.0139 -123.8870 157° South  Level FlightAware Approximate
Thu 11:49:00 PM 49.9404 -123.8332 153° Southeast  Level FlightAware Approximate
Thu 11:50:00 PM 49.8677 -123.7767 153° Southeast  Level FlightAware Approximate
Thu 11:51:00 PM 49.7973 -123.7140 147° Southeast  Level FlightAware Approximate
Thu 11:52:00 PM 49.7291 -123.6457 147° Southeast  Level FlightAware Approximate
Thu 11:53:00 PM 49.6608 -123.5775 147° Southeast  Level FlightAware Approximate
Thu 11:54:00 PM 49.5926 -123.5093 147° Southeast  Level FlightAware Approximate
Thu 11:55:00 PM 49.5244 -123.4411 147° Southeast  Level FlightAware Approximate
Thu 11:56:00 PM 49.4563 -123.3729 147° Southeast  Level FlightAware Approximate
Thu 11:57:00 PM 49.3902 -123.3211 186° South  Level FlightAware Approximate
Thu 11:58:00 PM 49.3094 -123.3333 180° South  Level FlightAware Approximate
Thu 11:59:00 PM 49.2970 -123.4154 284° West  Level FlightAware Approximate
Fri 12:00:00 AM 49.3151 -123.5317 147° Southeast  Level FlightAware Approximate
Fri 12:01:00 AM 49.2757 -123.4272 117° Southeast  Level FlightAware Approximate
Fri 12:02:00 AM 49.2333 -123.3233 90° East  Level FlightAware Approximate
Fri 12:03:00 AM 49.1961 -123.2217 117° Southeast  Level FlightAware Approximate
Fri 12:04:00 AM 49.1833 -123.1833 117° Southeast  Level FlightAware Approximate
Fri 12:05:00 AM 49.1939 -123.1844 117° Southeast  Level Estimated
Fri 12:06:00 AM 49.1939 -123.1844 117° Southeast  Level Estimated
Fri 12:07:00 AM 49.1939 -123.1844 117° Southeast  Level Estimated
Fri 12:08:00 AM 49.1939 -123.1844 117° Southeast  Level Estimated
Fri 12:09:00 AM 49.1939 -123.1844 117° Southeast  Level Estimated

Login

Don't have an account? Register now (free) for customized features, flight alerts, and more!